This is the latest recevied weather packets stored in our database for station/object N7WSS. If no packets are shown the sender has not sent any weather packets the latest 10 day(s).
| Time | Temp. | Humidity | Pressure | Rain* | Wind** | Luminosity | Snow |
|---|---|---|---|---|---|---|---|
| 1787533472 | 30.56° C | 40% | 1013.6 hPa | 0 mm | - | - | - |
| 1787533167 | 31.11° C | 41% | 1013.7 hPa | 0 mm | - | - | - |
| 1787532864 | 31.11° C | 37% | 1013.7 hPa | 0 mm | - | - | - |
| 1787532564 | 31.67° C | 36% | 1013.3 hPa | 0 mm | - | - | - |
| 1787532259 | 32.78° C | 34% | 1013.1 hPa | 0 mm | - | - | - |
| 1787531955 | 33.33° C | 31% | 1013.1 hPa | 0 mm | - | - | - |
| 1787531652 | 33.33° C | 32% | 1013 hPa | 0 mm | - | - | - |
| 1787531347 | 32.78° C | 32% | 1013 hPa | 0 mm | - | - | - |
| 1787531042 | 32.78° C | 32% | 1013 hPa | 0 mm | - | - | - |
| 1787530737 | 33.89° C | 33% | 1013 hPa | 0 mm | - | - | - |
| 1787530433 | 33.33° C | 35% | 1012.5 hPa | 0 mm | - | - | - |
| 1787530128 | 33.33° C | 34% | 1012.5 hPa | 0 mm | - | - | - |
| 1787529824 | 33.89° C | 33% | 1012.5 hPa | 0 mm | - | - | - |
| 1787529524 | 33.33° C | 36% | 1012.7 hPa | 0 mm | - | - | - |
| 1787529223 | 34.44° C | 34% | 1012.5 hPa | 0 mm | - | - | - |
| 1787528919 | 35.56° C | 31% | 1012.1 hPa | 0 mm | - | - | - |
| 1787528616 | 36.67° C | 27% | 1012.1 hPa | 0 mm | - | - | - |
| 1787528316 | 36.11° C | 27% | 1012 hPa | 0 mm | - | - | - |
| 1787528013 | 35.56° C | 28% | 1012.1 hPa | 0 mm | - | - | - |
| 1787527708 | 36.11° C | 27% | 1012.5 hPa | 0 mm | - | - | - |
| 1787527404 | 35° C | 28% | 1012.3 hPa | 0 mm | - | - | - |
| 1787527099 | 36.67° C | 25% | 1012.4 hPa | 0 mm | - | - | - |
| 1787526794 | 36.11° C | 27% | 1012.6 hPa | 0 mm | - | - | - |
| 1787526491 | 35.56° C | 27% | 1012.6 hPa | 0 mm | - | - | - |
| 1787526187 | 36.67° C | 26% | 1012.7 hPa | 0 mm | - | - | - |
* Rain latest hour (hover to see other rain measurements)
** Current wind speed in m/s (hover to see current wind gust speed)